createdAt,value
2023-02-05T00:01:40.258Z,11.20
2023-02-05T00:04:08.073Z,11.50
2023-02-05T00:06:35.215Z,11.53
2023-02-05T00:09:02.331Z,11.20
2023-02-05T00:11:30.476Z,11.77
2023-02-05T00:13:57.493Z,11.27
2023-02-05T00:16:25.471Z,12.00
2023-02-05T00:18:53.616Z,12.23
2023-02-05T00:21:22.494Z,14.03
2023-02-05T00:23:49.809Z,12.50
2023-02-05T00:26:18.038Z,13.80
2023-02-05T00:28:46.514Z,12.13
2023-02-05T00:31:16.544Z,13.37
2023-02-05T00:33:44.776Z,17.27
2023-02-05T00:36:13.037Z,17.67
2023-02-05T00:38:42.962Z,29.50
2023-02-05T00:41:11.104Z,16.37
2023-02-05T00:43:39.999Z,17.43
2023-02-05T00:46:08.539Z,21.83
2023-02-05T00:48:37.445Z,18.33
2023-02-05T00:51:05.562Z,17.53
2023-02-05T00:53:33.100Z,16.20
2023-02-05T00:56:00.230Z,12.17
2023-02-05T00:58:27.696Z,13.00
2023-02-05T01:00:57.770Z,10.97
2023-02-05T01:03:24.617Z,12.40
2023-02-05T01:05:51.493Z,12.93
2023-02-05T01:08:18.590Z,13.97
2023-02-05T01:10:48.283Z,11.80
2023-02-05T01:13:27.713Z,12.07
2023-02-05T01:15:54.758Z,12.53
2023-02-05T01:18:21.788Z,11.60
2023-02-05T01:20:48.927Z,10.63
2023-02-05T01:23:17.107Z,12.90
2023-02-05T01:25:45.041Z,10.37
2023-02-05T01:28:11.975Z,11.30
2023-02-05T01:30:39.121Z,11.23
2023-02-05T01:33:06.272Z,11.43
2023-02-05T01:35:33.699Z,11.27
2023-02-05T01:38:02.074Z,8.70
2023-02-05T01:40:29.174Z,5.60
2023-02-05T01:42:57.403Z,10.07
2023-02-05T01:45:26.920Z,9.70
2023-02-05T01:48:05.662Z,10.77
2023-02-05T01:50:38.629Z,9.57
2023-02-05T01:53:18.357Z,9.00
2023-02-05T01:55:59.049Z,9.93
2023-02-05T01:58:30.532Z,10.10
2023-02-05T02:00:57.714Z,11.60
2023-02-05T02:03:28.029Z,9.10
2023-02-05T02:05:55.996Z,9.93
2023-02-05T02:08:23.069Z,9.90
2023-02-05T02:10:52.598Z,8.97
2023-02-05T02:13:22.221Z,7.83
2023-02-05T02:15:50.958Z,8.10
2023-02-05T02:18:26.153Z,6.53
2023-02-05T02:21:07.385Z,6.27
2023-02-05T02:23:46.790Z,5.50
2023-02-05T02:26:46.723Z,6.10
2023-02-05T02:29:19.998Z,4.43
2023-02-05T02:31:59.910Z,5.87
2023-02-05T02:34:52.411Z,8.20
2023-02-05T02:37:25.982Z,9.40
2023-02-05T02:40:05.919Z,7.20
2023-02-05T02:43:10.251Z,6.50
2023-02-05T02:45:46.336Z,8.00
2023-02-05T02:48:17.891Z,8.73
2023-02-05T02:50:49.567Z,7.43
2023-02-05T02:53:26.718Z,6.00
2023-02-05T02:55:56.440Z,8.07
2023-02-05T02:58:33.080Z,7.10
2023-02-05T03:01:03.630Z,5.27
2023-02-05T03:03:32.921Z,4.53
2023-02-05T03:06:27.018Z,4.57
2023-02-05T03:09:38.369Z,4.77
2023-02-05T03:12:07.275Z,3.40
2023-02-05T03:14:34.538Z,4.67
2023-02-05T03:17:01.704Z,4.87
2023-02-05T03:19:29.601Z,5.77
2023-02-05T03:22:02.871Z,3.80
2023-02-05T03:24:38.885Z,4.03
2023-02-05T03:27:07.013Z,5.90
2023-02-05T03:29:39.107Z,4.57
2023-02-05T03:32:27.511Z,5.10
2023-02-05T03:35:03.689Z,4.57
2023-02-05T03:38:04.384Z,4.87
2023-02-05T03:40:55.650Z,5.03
2023-02-05T03:43:31.682Z,5.67
2023-02-05T03:46:30.506Z,4.47
2023-02-05T03:49:23.192Z,3.73
2023-02-05T03:51:53.402Z,4.47
2023-02-05T03:54:49.385Z,5.07
2023-02-05T03:57:30.469Z,4.57
2023-02-05T03:59:59.875Z,5.87
2023-02-05T04:02:30.295Z,5.57
2023-02-05T04:04:57.489Z,6.43
2023-02-05T04:07:27.681Z,4.77
2023-02-05T04:09:54.714Z,3.77
2023-02-05T04:12:21.632Z,3.87
2023-02-05T04:14:48.887Z,3.90
2023-02-05T04:17:15.918Z,5.07
2023-02-05T04:19:43.071Z,4.00
2023-02-05T04:22:10.201Z,4.83
2023-02-05T04:24:43.080Z,6.47
2023-02-05T04:27:10.027Z,5.73
2023-02-05T04:29:39.060Z,4.23
2023-02-05T04:32:07.170Z,5.70
2023-02-05T04:34:34.710Z,3.50
2023-02-05T04:37:03.891Z,4.20
2023-02-05T04:39:32.019Z,5.00
2023-02-05T04:42:05.077Z,5.43
2023-02-05T04:44:32.198Z,3.67
2023-02-05T04:47:02.458Z,8.33
2023-02-05T04:49:31.643Z,3.37
2023-02-05T04:51:58.771Z,5.13
2023-02-05T04:54:28.421Z,4.43
2023-02-05T04:56:55.518Z,5.53
2023-02-05T04:59:24.606Z,6.03
2023-02-05T05:02:00.604Z,3.87
2023-02-05T05:04:27.652Z,5.73
2023-02-05T05:06:58.774Z,5.53
2023-02-05T05:09:26.656Z,3.97
2023-02-05T05:11:56.492Z,4.53
2023-02-05T05:14:24.684Z,4.70
2023-02-05T05:16:52.666Z,5.67
2023-02-05T05:19:25.733Z,3.27
2023-02-05T05:21:52.828Z,6.27
2023-02-05T05:24:20.977Z,5.87
2023-02-05T05:26:48.129Z,3.80
2023-02-05T05:29:15.467Z,4.27
2023-02-05T05:31:42.931Z,3.63
2023-02-05T05:34:10.166Z,3.37
2023-02-05T05:36:40.035Z,5.57
2023-02-05T05:39:26.149Z,4.67
2023-02-05T05:42:11.582Z,3.27
2023-02-05T05:44:40.490Z,2.87
2023-02-05T05:47:07.392Z,3.27
2023-02-05T05:49:34.550Z,3.83
2023-02-05T05:52:08.377Z,4.03
2023-02-05T05:54:35.394Z,5.43
2023-02-05T05:57:02.484Z,4.37
2023-02-05T05:59:30.904Z,5.37
2023-02-05T06:01:57.931Z,6.20
2023-02-05T06:04:24.870Z,6.03
2023-02-05T06:06:51.843Z,4.33
2023-02-05T06:09:21.854Z,4.37
2023-02-05T06:11:49.275Z,2.73
2023-02-05T06:14:16.699Z,6.37
2023-02-05T06:16:43.895Z,4.90
2023-02-05T06:19:11.953Z,4.43
2023-02-05T06:21:44.657Z,6.43
2023-02-05T06:24:12.694Z,7.87
2023-02-05T06:26:39.735Z,10.87
2023-02-05T06:29:08.000Z,7.43
2023-02-05T06:31:40.960Z,12.20
2023-02-05T06:34:10.225Z,11.20
2023-02-05T06:36:37.098Z,9.13
2023-02-05T06:39:04.252Z,5.97
2023-02-05T06:41:31.246Z,5.60
2023-02-05T06:44:00.306Z,5.77
2023-02-05T06:46:29.285Z,12.00
2023-02-05T06:48:57.345Z,7.97
2023-02-05T06:51:24.374Z,5.53
2023-02-05T06:53:57.316Z,4.07
2023-02-05T06:56:24.867Z,7.37
2023-02-05T06:58:54.870Z,7.50
2023-02-05T07:01:26.980Z,10.83
2023-02-05T07:03:56.306Z,5.23
2023-02-05T07:06:26.293Z,13.07
2023-02-05T07:08:54.670Z,12.47
2023-02-05T07:11:23.292Z,12.10
2023-02-05T07:13:50.135Z,6.87
2023-02-05T07:16:18.320Z,6.00
2023-02-05T07:18:46.690Z,5.90
2023-02-05T07:21:17.224Z,8.07
2023-02-05T07:23:45.565Z,7.10
2023-02-05T07:26:16.062Z,4.23
2023-02-05T07:28:43.973Z,8.67
2023-02-05T07:31:17.374Z,6.53
2023-02-05T07:33:48.304Z,9.17
2023-02-05T07:36:17.712Z,10.23
2023-02-05T07:38:46.303Z,9.17
2023-02-05T07:41:15.531Z,7.43
2023-02-05T07:43:43.024Z,12.17
2023-02-05T07:46:15.356Z,13.87
2023-02-05T07:48:42.558Z,7.80
2023-02-05T07:51:19.252Z,9.07
2023-02-05T07:53:46.733Z,7.23
2023-02-05T07:56:16.290Z,6.63
2023-02-05T07:58:43.648Z,5.40
2023-02-05T08:01:11.658Z,4.87
2023-02-05T08:03:39.111Z,8.47
2023-02-05T08:06:08.235Z,6.50
2023-02-05T08:08:35.111Z,4.77
2023-02-05T08:11:03.919Z,7.73
2023-02-05T08:13:31.024Z,3.57
2023-02-05T08:15:58.234Z,5.80
2023-02-05T08:18:25.192Z,4.20
2023-02-05T08:20:53.492Z,14.13
2023-02-05T08:23:21.477Z,10.83
2023-02-05T08:25:48.590Z,9.00
2023-02-05T08:28:15.603Z,7.57
2023-02-05T08:30:42.813Z,5.77
2023-02-05T08:33:09.895Z,7.83
2023-02-05T08:35:37.892Z,9.77
2023-02-05T08:38:05.017Z,8.87
2023-02-05T08:40:33.129Z,13.33
2023-02-05T08:43:02.254Z,9.70
2023-02-05T08:45:29.961Z,8.60
2023-02-05T08:47:57.310Z,9.70
2023-02-05T08:50:24.692Z,8.27
2023-02-05T08:52:51.757Z,7.47
2023-02-05T08:55:18.779Z,9.83
2023-02-05T08:57:46.228Z,10.40
2023-02-05T09:00:15.300Z,8.00
2023-02-05T09:02:43.646Z,6.70
2023-02-05T09:05:11.017Z,9.73
2023-02-05T09:07:41.955Z,8.63
2023-02-05T09:10:12.619Z,11.00
2023-02-05T09:12:40.369Z,9.37
2023-02-05T09:15:08.452Z,7.67
2023-02-05T09:17:35.680Z,6.93
2023-02-05T09:20:02.843Z,7.13
2023-02-05T09:22:29.832Z,6.80
2023-02-05T09:24:57.065Z,7.07
2023-02-05T09:27:23.918Z,8.10
2023-02-05T09:29:50.722Z,5.03
2023-02-05T09:32:17.550Z,7.97
2023-02-05T09:34:44.368Z,8.77
2023-02-05T09:37:11.199Z,6.20
2023-02-05T09:42:47.872Z,10.30
2023-02-05T09:45:38.335Z,11.97
2023-02-05T09:48:29.722Z,8.20
2023-02-05T09:50:58.348Z,8.20
2023-02-05T09:53:32.556Z,7.97
2023-02-05T09:56:00.628Z,7.90
2023-02-05T09:58:31.907Z,7.00
2023-02-05T10:01:06.577Z,8.70
2023-02-05T10:03:47.189Z,7.60
2023-02-05T10:06:24.754Z,5.97
2023-02-05T10:09:10.202Z,7.00
2023-02-05T10:11:37.280Z,10.77
2023-02-05T10:14:29.685Z,5.83
2023-02-05T10:17:21.321Z,5.27
2023-02-05T10:19:57.245Z,7.57
2023-02-05T10:22:56.413Z,6.83
2023-02-05T10:25:45.718Z,6.70
2023-02-05T10:28:37.322Z,4.80
2023-02-05T10:31:04.652Z,6.23
2023-02-05T10:33:46.820Z,6.20
2023-02-05T10:36:14.591Z,8.30
2023-02-05T10:38:46.317Z,4.33
2023-02-05T10:41:35.516Z,12.50
2023-02-05T10:44:24.710Z,11.40
2023-02-05T10:46:59.181Z,5.83
2023-02-05T10:49:35.152Z,9.17
2023-02-05T10:52:02.121Z,14.03
2023-02-05T10:54:32.657Z,8.47
2023-02-05T10:57:01.250Z,4.03
2023-02-05T10:59:35.770Z,3.97
2023-02-05T11:02:09.658Z,5.40
2023-02-05T11:05:01.169Z,6.07
2023-02-05T11:07:38.462Z,3.60
2023-02-05T11:10:19.161Z,6.97
2023-02-05T11:12:52.241Z,3.73
2023-02-05T11:15:28.010Z,3.57
2023-02-05T11:18:03.112Z,5.97
2023-02-05T11:20:31.533Z,5.23
2023-02-05T11:23:07.256Z,4.23
2023-02-05T11:25:34.544Z,5.07
2023-02-05T11:28:05.677Z,4.07
2023-02-05T11:30:52.326Z,4.73
2023-02-05T11:33:22.449Z,5.37
2023-02-05T11:35:56.517Z,5.50
2023-02-05T11:38:39.849Z,7.30
2023-02-05T11:41:08.469Z,7.03
2023-02-05T11:43:45.211Z,35.50
2023-02-05T11:46:18.193Z,73.83
2023-02-05T11:49:20.974Z,15.33
2023-02-05T11:51:51.764Z,12.43
2023-02-05T11:54:35.495Z,7.03
2023-02-05T11:57:22.101Z,10.50
2023-02-05T12:00:01.014Z,4.07
2023-02-05T12:02:32.225Z,4.83
2023-02-05T12:05:17.063Z,6.67
2023-02-05T12:07:52.790Z,5.50
2023-02-05T12:10:26.484Z,7.10
2023-02-05T12:13:11.457Z,4.13
2023-02-05T12:16:06.501Z,4.03
2023-02-05T12:18:39.515Z,4.90
2023-02-05T12:21:15.348Z,4.33
2023-02-05T12:24:12.000Z,7.60
2023-02-05T12:26:44.868Z,6.57
2023-02-05T12:29:42.782Z,6.40
2023-02-05T12:32:45.211Z,4.07
2023-02-05T12:35:56.984Z,6.10
2023-02-05T12:38:44.098Z,6.50
2023-02-05T12:41:25.665Z,8.90
2023-02-05T12:44:08.478Z,6.33
2023-02-05T12:47:09.010Z,7.63
2023-02-05T12:49:47.224Z,6.87
2023-02-05T12:52:25.183Z,7.50
2023-02-05T12:55:12.379Z,8.93
2023-02-05T12:57:47.144Z,7.17
2023-02-05T13:00:19.727Z,7.60
2023-02-05T13:03:08.524Z,13.93
2023-02-05T13:05:41.310Z,7.13
2023-02-05T13:08:08.396Z,9.53
2023-02-05T13:10:56.366Z,9.30
2023-02-05T13:13:33.178Z,10.50
2023-02-05T13:16:11.451Z,7.73
2023-02-05T13:18:46.099Z,5.13
2023-02-05T13:21:36.956Z,5.73
2023-02-05T13:24:34.524Z,5.93
2023-02-05T13:27:20.619Z,8.67
2023-02-05T13:29:51.684Z,7.10
2023-02-05T13:32:23.657Z,8.80
2023-02-05T13:34:54.824Z,6.60
2023-02-05T13:37:42.970Z,5.87
2023-02-05T13:40:12.800Z,5.37
2023-02-05T13:42:42.368Z,7.20
2023-02-05T13:45:37.470Z,6.73
2023-02-05T13:48:34.804Z,7.30
2023-02-05T13:51:22.050Z,4.50
2023-02-05T13:54:11.131Z,4.60
2023-02-05T13:56:45.307Z,4.80
2023-02-05T13:59:23.610Z,7.00
2023-02-05T14:01:58.241Z,14.80
2023-02-05T14:04:28.470Z,5.73
2023-02-05T14:07:05.377Z,5.07
2023-02-05T14:09:42.485Z,5.97
2023-02-05T14:12:12.271Z,5.13
2023-02-05T14:14:41.501Z,6.90
2023-02-05T14:17:33.334Z,20.87
2023-02-05T14:20:01.402Z,19.00
2023-02-05T14:22:44.004Z,6.97
2023-02-05T14:25:36.744Z,12.57
2023-02-05T14:28:15.867Z,6.23
2023-02-05T14:30:53.122Z,6.80
2023-02-05T14:33:43.443Z,12.43
2023-02-05T14:36:22.859Z,7.77
2023-02-05T14:38:53.983Z,6.57
2023-02-05T14:41:25.338Z,6.00
2023-02-05T14:44:15.961Z,6.20
2023-02-05T14:46:54.359Z,4.33
2023-02-05T14:49:28.807Z,5.93
2023-02-05T14:52:04.604Z,5.83
2023-02-05T14:54:33.187Z,8.63
2023-02-05T14:57:15.084Z,16.53
2023-02-05T14:59:58.556Z,10.63
2023-02-05T15:02:48.425Z,9.70
2023-02-05T15:05:27.608Z,7.50
2023-02-05T15:08:13.147Z,5.33
2023-02-05T15:10:48.626Z,5.73
2023-02-05T15:13:18.529Z,10.90
2023-02-05T15:16:14.805Z,10.03
2023-02-05T15:18:59.309Z,25.40
2023-02-05T15:21:39.776Z,45.33
2023-02-05T15:24:13.494Z,23.60
2023-02-05T15:26:59.298Z,30.63
2023-02-05T15:29:30.517Z,16.63
2023-02-05T15:32:32.658Z,22.20
2023-02-05T15:35:06.173Z,20.90
2023-02-05T15:37:41.857Z,37.03
2023-02-05T15:40:30.585Z,22.20
2023-02-05T15:43:18.136Z,27.80
2023-02-05T15:45:45.917Z,20.03
2023-02-05T15:48:17.234Z,14.67
2023-02-05T15:51:00.192Z,14.03
2023-02-05T15:53:49.408Z,19.10
2023-02-05T15:56:48.595Z,17.73
2023-02-05T15:59:28.830Z,19.80
2023-02-05T16:02:18.753Z,18.10
2023-02-05T16:04:53.283Z,51.37
2023-02-05T16:07:35.479Z,139.37
2023-02-05T16:10:14.751Z,22.17
2023-02-05T16:12:59.889Z,16.47
2023-02-05T16:15:56.756Z,35.70
2023-02-05T16:18:53.650Z,17.60
2023-02-05T16:21:24.853Z,13.87
2023-02-05T16:23:57.821Z,19.03
2023-02-05T16:26:36.695Z,17.47
2023-02-05T16:29:11.739Z,14.07
2023-02-05T16:31:47.447Z,17.93
2023-02-05T16:34:21.653Z,10.80
2023-02-05T16:36:50.389Z,13.30
2023-02-05T16:39:29.847Z,16.07
2023-02-05T16:42:09.406Z,14.20
2023-02-05T16:44:39.131Z,14.53
2023-02-05T16:47:14.129Z,12.97
2023-02-05T16:49:42.858Z,11.80
2023-02-05T16:52:30.788Z,11.20
2023-02-05T16:54:59.696Z,11.20
2023-02-05T16:57:34.979Z,11.70
2023-02-05T17:00:19.634Z,15.77
2023-02-05T17:02:46.791Z,7.97
2023-02-05T17:05:30.921Z,12.20
2023-02-05T17:08:00.747Z,15.63
2023-02-05T17:10:28.951Z,14.77
2023-02-05T17:13:01.737Z,16.23
2023-02-05T17:15:33.770Z,21.83
2023-02-05T17:18:17.746Z,27.60
2023-02-05T17:20:47.445Z,26.43
2023-02-05T17:23:15.923Z,19.67
2023-02-05T17:25:55.338Z,26.47
2023-02-05T17:28:27.474Z,18.40
2023-02-05T17:30:57.816Z,21.37
2023-02-05T17:33:27.038Z,18.67
2023-02-05T17:35:53.861Z,18.90
2023-02-05T17:38:21.092Z,23.70
2023-02-05T17:40:47.918Z,23.73
2023-02-05T17:43:14.760Z,22.40
2023-02-05T17:45:44.296Z,24.60
2023-02-05T17:48:11.623Z,18.07
2023-02-05T17:50:38.821Z,19.70
2023-02-05T17:53:05.905Z,22.93
2023-02-05T17:55:32.952Z,21.27
2023-02-05T17:57:59.769Z,18.37
2023-02-05T18:00:28.671Z,21.97
2023-02-05T18:02:55.499Z,21.63
2023-02-05T18:05:22.894Z,18.70
2023-02-05T18:07:56.536Z,17.97
2023-02-05T18:10:29.090Z,18.17
2023-02-05T18:12:56.286Z,20.07
2023-02-05T18:15:23.979Z,18.97
2023-02-05T18:17:51.428Z,19.40
2023-02-05T18:20:22.142Z,17.83
2023-02-05T18:22:49.457Z,18.13
2023-02-05T18:25:16.699Z,19.37
2023-02-05T18:27:43.679Z,18.50
2023-02-05T18:30:11.210Z,17.87
2023-02-05T18:32:38.140Z,19.57
2023-02-05T18:35:05.205Z,17.53
2023-02-05T18:37:32.226Z,19.83
2023-02-05T18:39:59.068Z,20.07
2023-02-05T18:42:27.024Z,20.60
2023-02-05T18:44:53.881Z,22.57
2023-02-05T18:47:20.956Z,19.27
2023-02-05T18:49:47.752Z,19.50
2023-02-05T18:52:14.661Z,20.70
2023-02-05T18:54:41.632Z,21.30
2023-02-05T18:57:08.475Z,24.27
2023-02-05T18:59:36.870Z,22.50
2023-02-05T19:02:03.789Z,23.70
2023-02-05T19:04:33.076Z,21.47
2023-02-05T19:07:00.188Z,20.50
2023-02-05T19:09:28.046Z,20.47
2023-02-05T19:11:55.650Z,20.20
2023-02-05T19:14:24.370Z,17.37
2023-02-05T19:16:52.431Z,22.03
2023-02-05T19:19:23.605Z,22.93
2023-02-05T19:21:55.804Z,20.67
2023-02-05T19:24:22.681Z,19.40
2023-02-05T19:26:50.907Z,20.07
2023-02-05T19:29:20.111Z,16.23
2023-02-05T19:31:47.928Z,19.93
2023-02-05T19:34:15.882Z,20.77
2023-02-05T19:36:43.143Z,22.87
2023-02-05T19:39:14.065Z,20.37
2023-02-05T19:41:45.599Z,19.90
2023-02-05T19:44:12.818Z,20.73
2023-02-05T19:46:44.141Z,21.43
2023-02-05T19:49:18.220Z,21.37
2023-02-05T19:51:47.137Z,19.63
2023-02-05T19:54:15.046Z,22.17
2023-02-05T19:56:43.156Z,21.30
2023-02-05T19:59:10.583Z,23.53
2023-02-05T20:01:39.372Z,25.70
2023-02-05T20:04:09.548Z,25.40
2023-02-05T20:06:37.333Z,25.90
2023-02-05T20:09:10.376Z,19.87
2023-02-05T20:11:42.696Z,19.07
2023-02-05T20:14:10.820Z,23.03
2023-02-05T20:16:42.302Z,25.70
2023-02-05T20:19:12.748Z,22.60
2023-02-05T20:21:40.078Z,25.33
2023-02-05T20:24:08.266Z,24.70
2023-02-05T20:26:36.545Z,24.63
2023-02-05T20:29:22.553Z,37.60
2023-02-05T20:31:51.948Z,58.03
2023-02-05T20:34:26.144Z,59.87
2023-02-05T20:36:56.277Z,51.20
2023-02-05T20:39:24.657Z,49.00
2023-02-05T20:41:52.398Z,48.70
2023-02-05T20:44:19.440Z,40.60
2023-02-05T20:46:46.348Z,39.87
2023-02-05T20:49:13.449Z,38.93
2023-02-05T20:51:43.424Z,37.90
2023-02-05T20:54:11.119Z,39.87
2023-02-05T20:56:38.013Z,50.93
2023-02-05T20:59:07.219Z,49.43
2023-02-05T21:01:36.487Z,41.87
2023-02-05T21:04:04.643Z,39.00
2023-02-05T21:06:37.750Z,43.17
2023-02-05T21:09:06.372Z,44.53
2023-02-05T21:11:34.332Z,41.97
2023-02-05T21:14:03.386Z,41.07
2023-02-05T21:16:30.836Z,40.37
2023-02-05T21:18:57.704Z,39.90
2023-02-05T21:21:27.281Z,39.07
2023-02-05T21:24:08.587Z,51.13
2023-02-05T21:26:40.363Z,50.43
2023-02-05T21:29:10.272Z,49.83
2023-02-05T21:31:44.803Z,51.33
2023-02-05T21:34:15.319Z,43.40
2023-02-05T21:36:42.163Z,47.37
2023-02-05T21:39:12.032Z,43.80
2023-02-05T21:41:39.510Z,45.30
2023-02-05T21:44:06.394Z,46.03
2023-02-05T21:46:33.515Z,47.93
2023-02-05T21:49:01.003Z,53.97
2023-02-05T21:51:34.676Z,45.13
2023-02-05T21:54:04.147Z,47.93
2023-02-05T21:56:34.426Z,43.63
2023-02-05T21:59:01.403Z,41.43
2023-02-05T22:01:30.896Z,40.53
2023-02-05T22:04:00.369Z,40.47
2023-02-05T22:06:29.590Z,40.77
2023-02-05T22:08:57.809Z,40.57
2023-02-05T22:11:25.645Z,44.37
2023-02-05T22:13:54.031Z,41.57
2023-02-05T22:16:24.365Z,41.40
2023-02-05T22:18:52.793Z,39.67
2023-02-05T22:21:21.303Z,40.90
2023-02-05T22:23:50.835Z,39.37
2023-02-05T22:26:19.910Z,42.70
2023-02-05T22:28:48.709Z,42.77
2023-02-05T22:31:18.188Z,37.73
2023-02-05T22:33:46.935Z,41.63
2023-02-05T22:36:15.894Z,46.53
2023-02-05T22:38:43.725Z,42.90
2023-02-05T22:41:19.764Z,43.37
2023-02-05T22:43:46.917Z,42.53
2023-02-05T22:46:16.776Z,39.90
2023-02-05T22:48:46.182Z,39.43
2023-02-05T22:51:19.060Z,40.47
2023-02-05T22:53:46.457Z,40.83
2023-02-05T22:56:14.086Z,43.00
2023-02-05T22:58:45.344Z,42.30
2023-02-05T23:01:17.717Z,40.50
2023-02-05T23:03:49.364Z,39.77
2023-02-05T23:06:21.199Z,40.07
2023-02-05T23:08:55.234Z,40.97
2023-02-05T23:11:22.534Z,42.67
2023-02-05T23:13:50.965Z,42.60
2023-02-05T23:16:24.012Z,42.73
2023-02-05T23:18:52.506Z,41.97
2023-02-05T23:21:22.592Z,40.33
2023-02-05T23:23:50.356Z,40.03
2023-02-05T23:26:21.254Z,43.03
2023-02-05T23:28:50.427Z,42.43
2023-02-05T23:31:20.065Z,45.57
2023-02-05T23:33:49.264Z,42.90
2023-02-05T23:36:16.211Z,42.30
2023-02-05T23:38:49.311Z,42.53
2023-02-05T23:41:36.391Z,43.53
2023-02-05T23:44:11.519Z,42.30
2023-02-05T23:46:39.982Z,39.77
2023-02-05T23:49:08.037Z,41.03
2023-02-05T23:51:35.707Z,41.77
2023-02-05T23:54:03.747Z,46.87
2023-02-05T23:56:31.188Z,47.90
2023-02-05T23:59:00.524Z,40.77
